createdAt,value
2024-04-10T00:00:26.826Z,101155.00
2024-04-10T00:02:53.948Z,101157.97
2024-04-10T00:05:21.439Z,101151.50
2024-04-10T00:07:52.005Z,101154.09
2024-04-10T00:10:19.490Z,101159.44
2024-04-10T00:12:47.019Z,101170.22
2024-04-10T00:15:15.206Z,101177.44
2024-04-10T00:17:42.775Z,101162.13
2024-04-10T00:20:10.278Z,101165.88
2024-04-10T00:22:37.615Z,101168.44
2024-04-10T00:25:05.153Z,101161.13
2024-04-10T00:27:32.732Z,101154.81
2024-04-10T00:29:59.933Z,101156.97
2024-04-10T00:32:27.725Z,101150.06
2024-04-10T00:34:54.983Z,101149.56
2024-04-10T00:37:22.302Z,101154.53
2024-04-10T00:39:49.517Z,101149.31
2024-04-10T00:42:16.645Z,101137.41
2024-04-10T00:44:52.110Z,101140.91
2024-04-10T00:47:20.524Z,101143.50
2024-04-10T00:49:48.255Z,101144.44
2024-04-10T00:52:15.691Z,101149.78
2024-04-10T00:54:44.346Z,101135.72
2024-04-10T00:57:11.592Z,101134.00
2024-04-10T00:59:39.101Z,101138.16
2024-04-10T01:02:06.635Z,101140.66
2024-04-10T01:04:34.241Z,101139.69
2024-04-10T01:07:07.293Z,101140.84
2024-04-10T01:09:34.634Z,101139.81
2024-04-10T01:12:01.910Z,101140.44
2024-04-10T01:14:29.541Z,101148.63
2024-04-10T01:16:57.022Z,101152.22
2024-04-10T01:19:24.528Z,101157.72
2024-04-10T01:21:51.724Z,101151.19
2024-04-10T01:24:18.947Z,101159.66
2024-04-10T01:26:46.216Z,101153.09
2024-04-10T01:29:13.407Z,101148.81
2024-04-10T01:31:41.022Z,101151.88
2024-04-10T01:34:08.350Z,101150.75
2024-04-10T01:36:35.632Z,101149.59
2024-04-10T01:39:02.893Z,101151.97
2024-04-10T01:41:30.285Z,101157.94
2024-04-10T01:43:57.984Z,101159.09
2024-04-10T01:46:25.132Z,101166.88
2024-04-10T01:48:52.548Z,101164.88
2024-04-10T01:51:19.830Z,101162.47
2024-04-10T01:53:47.148Z,101162.47
2024-04-10T01:56:14.347Z,101157.16
2024-04-10T01:58:41.484Z,101165.53
2024-04-10T02:01:08.740Z,101163.63
2024-04-10T02:03:36.130Z,101171.63
2024-04-10T02:06:03.399Z,101169.88
2024-04-10T02:08:30.779Z,101178.09
2024-04-10T02:11:01.687Z,101181.34
2024-04-10T02:13:29.201Z,101172.09
2024-04-10T02:15:56.517Z,101166.31
2024-04-10T02:18:23.940Z,101170.09
2024-04-10T02:21:00.846Z,101166.88
2024-04-10T02:23:30.182Z,101168.69
2024-04-10T02:25:57.474Z,101170.47
2024-04-10T02:28:24.788Z,101170.16
2024-04-10T02:30:51.965Z,101167.88
2024-04-10T02:33:19.497Z,101176.63
2024-04-10T02:35:46.720Z,101182.97
2024-04-10T02:38:14.245Z,101186.31
2024-04-10T02:40:41.672Z,101185.25
2024-04-10T02:43:08.784Z,101183.78
2024-04-10T02:45:36.036Z,101187.81
2024-04-10T02:48:03.495Z,101190.56
2024-04-10T02:50:30.930Z,101206.53
2024-04-10T02:52:58.174Z,101196.00
2024-04-10T02:55:25.545Z,101200.94
2024-04-10T02:57:52.742Z,101213.34
2024-04-10T03:00:20.110Z,101209.06
2024-04-10T03:02:48.004Z,101199.97
2024-04-10T03:05:15.425Z,101196.25
2024-04-10T03:07:42.614Z,101197.56
2024-04-10T03:10:10.956Z,101205.75
2024-04-10T03:12:38.264Z,101201.38
2024-04-10T03:15:06.281Z,101198.88
2024-04-10T03:17:33.925Z,101199.75
2024-04-10T03:20:01.321Z,101191.69
2024-04-10T03:22:28.525Z,101189.03
2024-04-10T03:24:55.658Z,101185.44
2024-04-10T03:27:23.030Z,101183.91
2024-04-10T03:29:50.320Z,101193.41
2024-04-10T03:32:17.678Z,101194.25
2024-04-10T03:34:44.921Z,101201.09
2024-04-10T03:37:12.192Z,101198.53
2024-04-10T03:39:39.552Z,101201.19
2024-04-10T03:42:06.767Z,101197.69
2024-04-10T03:44:35.753Z,101193.91
2024-04-10T03:47:06.312Z,101196.72
2024-04-10T03:49:36.167Z,101202.88
2024-04-10T03:52:03.544Z,101206.50
2024-04-10T03:54:30.944Z,101200.72
2024-04-10T03:56:58.198Z,101204.34
2024-04-10T03:59:28.495Z,101217.13
2024-04-10T04:01:57.029Z,101217.72
2024-04-10T04:04:24.430Z,101217.47
2024-04-10T04:06:52.073Z,101214.50
2024-04-10T04:09:19.371Z,101224.66
2024-04-10T04:11:47.385Z,101229.47
2024-04-10T04:14:14.657Z,101219.94
2024-04-10T04:16:42.121Z,101222.72
2024-04-10T04:19:09.361Z,101224.25
2024-04-10T04:21:36.599Z,101220.06
2024-04-10T04:24:04.185Z,101216.94
2024-04-10T04:26:31.577Z,101219.16
2024-04-10T04:28:58.792Z,101220.47
2024-04-10T04:31:25.986Z,101222.59
2024-04-10T04:33:55.974Z,101226.38
2024-04-10T04:36:23.434Z,101225.31
2024-04-10T04:38:50.730Z,101227.31
2024-04-10T04:41:18.058Z,101235.50
2024-04-10T04:43:45.335Z,101238.31
2024-04-10T04:46:17.585Z,101233.34
2024-04-10T04:48:44.954Z,101238.69
2024-04-10T04:51:13.132Z,101237.66
2024-04-10T04:53:40.955Z,101244.78
2024-04-10T04:56:08.625Z,101246.78
2024-04-10T04:58:36.071Z,101245.47
2024-04-10T05:01:03.289Z,101237.38
2024-04-10T05:03:49.505Z,101241.44
2024-04-10T05:06:19.537Z,101245.78
2024-04-10T05:08:46.970Z,101252.66
2024-04-10T05:11:16.075Z,101248.06
2024-04-10T05:13:43.362Z,101254.53
2024-04-10T05:16:12.232Z,101237.19
2024-04-10T05:18:39.654Z,101249.59
2024-04-10T05:21:06.927Z,101249.94
2024-04-10T05:23:34.856Z,101248.78
2024-04-10T05:26:05.984Z,101248.38
2024-04-10T05:28:34.003Z,101243.03
2024-04-10T05:31:02.207Z,101243.53
2024-04-10T05:33:30.562Z,101242.06
2024-04-10T05:36:01.282Z,101246.50
2024-04-10T05:38:30.388Z,101257.78
2024-04-10T05:40:58.521Z,101254.53
2024-04-10T05:43:28.818Z,101258.69
2024-04-10T05:45:57.140Z,101265.91
2024-04-10T05:48:24.678Z,101265.28
2024-04-10T05:51:04.450Z,101268.22
2024-04-10T05:53:33.318Z,101270.56
2024-04-10T05:56:07.007Z,101268.53
2024-04-10T05:58:36.297Z,101267.16
2024-04-10T06:01:08.825Z,101261.19
2024-04-10T06:03:36.599Z,101257.78
2024-04-10T06:06:17.490Z,101259.06
2024-04-10T06:08:45.055Z,101253.06
2024-04-10T06:11:12.818Z,101251.88
2024-04-10T06:13:40.306Z,101260.13
2024-04-10T06:16:07.939Z,101262.72
2024-04-10T06:18:35.488Z,101258.44
2024-04-10T06:21:03.641Z,101253.97
2024-04-10T06:23:32.210Z,101256.31
2024-04-10T06:25:59.784Z,101256.53
2024-04-10T06:28:27.427Z,101254.81
2024-04-10T06:31:01.212Z,101255.69
2024-04-10T06:33:29.008Z,101253.53
2024-04-10T06:36:00.250Z,101253.94
2024-04-10T06:38:28.729Z,101253.56
2024-04-10T06:40:57.221Z,101251.41
2024-04-10T06:43:24.684Z,101254.53
2024-04-10T06:46:05.237Z,101259.34
2024-04-10T06:48:32.897Z,101260.97
2024-04-10T06:51:01.302Z,101261.41
2024-04-10T06:53:29.060Z,101257.56
2024-04-10T06:56:02.325Z,101254.81
2024-04-10T06:58:30.280Z,101263.00
2024-04-10T07:01:02.053Z,101266.91
2024-04-10T07:03:33.409Z,101265.34
2024-04-10T07:06:03.564Z,101265.25
2024-04-10T07:08:33.830Z,101270.50
2024-04-10T07:11:01.371Z,101267.69
2024-04-10T07:13:28.948Z,101260.41
2024-04-10T07:16:03.487Z,101263.13
2024-04-10T07:18:31.731Z,101258.72
2024-04-10T07:20:59.079Z,101253.59
2024-04-10T07:23:26.342Z,101260.66
2024-04-10T07:25:53.697Z,101250.16
2024-04-10T07:28:21.009Z,101253.31
2024-04-10T07:30:49.650Z,101252.94
2024-04-10T07:33:17.724Z,101250.06
2024-04-10T07:35:45.226Z,101253.00
2024-04-10T07:38:12.520Z,101246.88
2024-04-10T07:40:39.902Z,101253.25
2024-04-10T07:43:07.217Z,101238.06
2024-04-10T07:45:34.407Z,101243.25
2024-04-10T07:48:02.165Z,101235.47
2024-04-10T07:50:30.052Z,101232.59
2024-04-10T07:53:00.249Z,101232.31
2024-04-10T07:55:28.757Z,101227.00
2024-04-10T07:57:56.008Z,101230.59
2024-04-10T08:00:23.270Z,101225.63
2024-04-10T08:02:50.566Z,101231.59
2024-04-10T08:05:18.064Z,101230.53
2024-04-10T08:07:45.612Z,101228.00
2024-04-10T08:10:13.878Z,101233.44
2024-04-10T08:12:41.145Z,101230.59
2024-04-10T08:15:10.190Z,101222.94
2024-04-10T08:17:41.768Z,101224.47
2024-04-10T08:20:09.284Z,101222.78
2024-04-10T08:22:36.673Z,101219.31
2024-04-10T08:25:04.678Z,101220.63
2024-04-10T08:27:32.008Z,101210.59
2024-04-10T08:29:59.275Z,101206.19
2024-04-10T08:32:26.583Z,101214.84
2024-04-10T08:34:53.946Z,101216.25
2024-04-10T08:37:21.197Z,101201.22
2024-04-10T08:39:51.236Z,101205.19
2024-04-10T08:42:20.043Z,101209.28
2024-04-10T08:44:48.415Z,101214.22
2024-04-10T08:47:15.822Z,101214.81
2024-04-10T08:49:43.178Z,101199.22
2024-04-10T08:52:10.519Z,101203.19
2024-04-10T08:54:38.790Z,101204.13
2024-04-10T08:57:06.096Z,101202.50
2024-04-10T08:59:34.710Z,101201.72
2024-04-10T09:02:03.342Z,101193.59
2024-04-10T09:04:30.785Z,101200.34
2024-04-10T09:07:01.994Z,101193.50
2024-04-10T09:09:29.714Z,101194.56
2024-04-10T09:11:56.935Z,101196.25
2024-04-10T09:14:24.230Z,101193.63
2024-04-10T09:16:51.523Z,101183.25
2024-04-10T09:19:19.591Z,101189.94
2024-04-10T09:21:57.137Z,101189.38
2024-04-10T09:24:28.541Z,101181.31
2024-04-10T09:26:56.110Z,101180.69
2024-04-10T09:29:30.405Z,101178.31
2024-04-10T09:32:07.041Z,101171.66
2024-04-10T09:34:36.349Z,101171.97
2024-04-10T09:37:06.123Z,101171.34
2024-04-10T09:39:33.670Z,101168.53
2024-04-10T09:42:01.366Z,101175.28
2024-04-10T09:44:33.312Z,101167.84
2024-04-10T09:47:01.751Z,101167.72
2024-04-10T09:49:30.281Z,101171.53
2024-04-10T09:51:58.535Z,101172.81
2024-04-10T09:54:26.649Z,101178.22
2024-04-10T09:56:54.071Z,101166.06
2024-04-10T09:59:21.685Z,101167.84
2024-04-10T10:01:49.819Z,101165.19
2024-04-10T10:04:17.174Z,101166.47
2024-04-10T10:06:44.520Z,101168.78
2024-04-10T10:09:11.787Z,101164.28
2024-04-10T10:11:39.125Z,101165.94
2024-04-10T10:14:07.916Z,101168.88
2024-04-10T10:16:35.341Z,101172.03
2024-04-10T10:19:06.159Z,101171.38
2024-04-10T10:21:34.051Z,101175.56
2024-04-10T10:24:06.302Z,101177.00
2024-04-10T10:26:34.166Z,101178.84
2024-04-10T10:29:10.439Z,101179.16
2024-04-10T10:31:39.298Z,101179.88
2024-04-10T10:34:12.563Z,101176.84
2024-04-10T10:36:44.888Z,101177.38
2024-04-10T10:39:17.264Z,101178.97
2024-04-10T10:41:44.758Z,101176.34
2024-04-10T10:44:27.441Z,101182.78
2024-04-10T10:46:58.696Z,101174.38
2024-04-10T10:49:27.632Z,101171.38
2024-04-10T10:51:55.490Z,101183.44
2024-04-10T10:54:23.114Z,101188.09
2024-04-10T10:56:50.420Z,101182.84
2024-04-10T10:59:17.909Z,101173.22
2024-04-10T11:01:45.290Z,101177.84
2024-04-10T11:04:16.602Z,101179.03
2024-04-10T11:06:44.375Z,101183.44
2024-04-10T11:09:12.625Z,101167.19
2024-04-10T11:11:40.673Z,101164.84
2024-04-10T11:14:09.719Z,101161.31
2024-04-10T11:16:37.396Z,101164.34
2024-04-10T11:19:05.995Z,101165.22
2024-04-10T11:21:35.895Z,101157.75
2024-04-10T11:24:04.029Z,101162.81
2024-04-10T11:26:31.608Z,101163.13
2024-04-10T11:28:58.985Z,101161.97
2024-04-10T11:31:26.185Z,101160.44
2024-04-10T11:33:53.698Z,101157.59
2024-04-10T11:36:21.162Z,101156.44
2024-04-10T11:38:51.469Z,101154.22
2024-04-10T11:41:19.452Z,101150.16
2024-04-10T11:43:46.853Z,101151.72
2024-04-10T11:46:14.136Z,101144.06
2024-04-10T11:48:41.763Z,101146.22
2024-04-10T11:51:10.063Z,101142.88
2024-04-10T11:53:38.705Z,101133.06
2024-04-10T11:56:06.146Z,101126.31
2024-04-10T11:58:33.428Z,101127.66
2024-04-10T12:01:00.757Z,101131.69
2024-04-10T12:03:28.433Z,101120.69
2024-04-10T12:05:56.097Z,101123.72
2024-04-10T12:08:23.789Z,101125.78
2024-04-10T12:10:51.041Z,101125.25
2024-04-10T12:13:18.253Z,101122.88
2024-04-10T12:15:45.406Z,101118.84
2024-04-10T12:18:12.756Z,101118.34
2024-04-10T12:20:40.260Z,101114.78
2024-04-10T12:23:07.650Z,101115.97
2024-04-10T12:25:35.183Z,101119.50
2024-04-10T12:28:03.680Z,101111.34
2024-04-10T12:30:31.179Z,101118.47
2024-04-10T12:35:44.393Z,101110.81
2024-04-10T12:38:13.633Z,101108.97
2024-04-10T12:40:41.144Z,101112.00
2024-04-10T12:43:10.371Z,101105.31
2024-04-10T12:45:37.721Z,101108.16
2024-04-10T12:48:07.197Z,101104.47
2024-04-10T12:50:34.734Z,101107.81
2024-04-10T12:53:02.304Z,101094.59
2024-04-10T12:55:29.891Z,101093.69
2024-04-10T12:57:57.341Z,101088.84
2024-04-10T13:00:25.217Z,101097.88
2024-04-10T13:02:54.341Z,101086.59
2024-04-10T13:05:22.249Z,101099.41
2024-04-10T13:07:49.542Z,101088.22
2024-04-10T13:10:18.201Z,101085.75
2024-04-10T13:12:45.511Z,101092.25
2024-04-10T13:15:13.016Z,101096.66
2024-04-10T13:17:40.498Z,101090.91
2024-04-10T13:20:08.382Z,101091.06
2024-04-10T13:22:35.724Z,101076.78
2024-04-10T13:25:03.764Z,101085.81
2024-04-10T13:27:31.592Z,101079.38
2024-04-10T13:29:59.352Z,101087.50
2024-04-10T13:32:29.219Z,101080.91
2024-04-10T13:34:58.007Z,101079.81
2024-04-10T13:37:30.949Z,101078.44
2024-04-10T13:40:05.431Z,101079.03
2024-04-10T13:42:33.033Z,101079.28
2024-04-10T13:45:00.567Z,101076.22
2024-04-10T13:47:28.768Z,101078.69
2024-04-10T13:49:56.136Z,101078.28
2024-04-10T13:52:24.619Z,101075.69
2024-04-10T13:54:51.853Z,101081.41
2024-04-10T13:57:19.824Z,101078.31
2024-04-10T13:59:47.447Z,101075.44
2024-04-10T14:02:14.840Z,101086.28
2024-04-10T14:04:42.603Z,101077.88
2024-04-10T14:07:10.303Z,101081.00
2024-04-10T14:09:37.812Z,101080.66
2024-04-10T14:12:05.264Z,101080.28
2024-04-10T14:14:33.231Z,101084.34
2024-04-10T14:17:15.054Z,101080.94
2024-04-10T14:19:50.878Z,101075.13
2024-04-10T14:22:18.231Z,101074.13
2024-04-10T14:24:45.486Z,101075.09
2024-04-10T14:27:12.890Z,101068.72
2024-04-10T14:29:40.443Z,101070.06
2024-04-10T14:32:07.883Z,101067.34
2024-04-10T14:34:35.623Z,101073.91
2024-04-10T14:37:02.918Z,101067.59
2024-04-10T14:39:30.279Z,101068.59
2024-04-10T14:41:57.639Z,101070.91
2024-04-10T14:44:43.811Z,101069.88
2024-04-10T14:47:11.212Z,101067.44
2024-04-10T14:49:38.468Z,101070.59
2024-04-10T14:52:06.123Z,101076.22
2024-04-10T14:54:33.589Z,101072.91
2024-04-10T14:57:01.096Z,101072.91
2024-04-10T14:59:28.439Z,101081.75
2024-04-10T15:01:56.631Z,101079.25
2024-04-10T15:04:25.184Z,101086.59
2024-04-10T15:06:52.524Z,101087.44
2024-04-10T15:09:19.766Z,101084.75
2024-04-10T15:11:47.121Z,101088.63
2024-04-10T15:14:14.665Z,101074.97
2024-04-10T15:16:42.156Z,101083.28
2024-04-10T15:19:09.496Z,101082.72
2024-04-10T15:21:36.857Z,101083.78
2024-04-10T15:24:04.993Z,101085.81
2024-04-10T15:26:34.066Z,101089.94
2024-04-10T15:29:01.403Z,101094.78
2024-04-10T15:31:28.690Z,101092.34
2024-04-10T15:33:56.304Z,101094.78
2024-04-10T15:36:23.635Z,101094.00
2024-04-10T15:38:50.950Z,101096.34
2024-04-10T15:41:20.076Z,101102.88
2024-04-10T15:43:47.481Z,101098.03
2024-04-10T15:46:14.959Z,101102.28
2024-04-10T15:48:42.356Z,101104.97
2024-04-10T15:51:13.670Z,101106.84
2024-04-10T15:53:41.245Z,101114.28
2024-04-10T15:56:09.610Z,101107.50
2024-04-10T15:58:37.708Z,101114.28
2024-04-10T16:01:06.250Z,101117.44
2024-04-10T16:03:35.257Z,101119.44
2024-04-10T16:06:05.094Z,101123.13
2024-04-10T16:08:32.701Z,101132.53
2024-04-10T16:11:00.034Z,101127.59
2024-04-10T16:13:27.530Z,101129.09
2024-04-10T16:16:03.775Z,101131.75
2024-04-10T16:18:31.273Z,101130.66
2024-04-10T16:21:05.517Z,101131.75
2024-04-10T16:23:33.130Z,101135.88
2024-04-10T16:26:18.879Z,101133.78
2024-04-10T16:28:46.622Z,101145.84
2024-04-10T16:31:17.915Z,101153.00
2024-04-10T16:33:49.866Z,101153.38
2024-04-10T16:36:34.608Z,101149.53
2024-04-10T16:39:01.874Z,101149.63
2024-04-10T16:41:29.321Z,101153.22
2024-04-10T16:43:56.528Z,101164.09
2024-04-10T16:46:23.831Z,101160.63
2024-04-10T16:48:51.178Z,101168.47
2024-04-10T16:51:18.551Z,101166.34
2024-04-10T16:53:45.990Z,101174.34
2024-04-10T16:56:20.964Z,101171.41
2024-04-10T16:58:49.103Z,101180.06
2024-04-10T17:01:16.945Z,101184.38
2024-04-10T17:03:44.726Z,101187.81
2024-04-10T17:07:46.318Z,101184.13
2024-04-10T17:10:15.528Z,101196.47
2024-04-10T17:12:44.125Z,101204.16
2024-04-10T17:15:11.337Z,101199.06
2024-04-10T17:17:57.507Z,101200.06
2024-04-10T17:20:43.478Z,101203.03
2024-04-10T17:23:10.838Z,101201.81
2024-04-10T17:25:39.785Z,101212.25
2024-04-10T17:28:07.188Z,101210.84
2024-04-10T17:30:34.507Z,101215.69
2024-04-10T17:33:01.934Z,101210.03
2024-04-10T17:35:29.616Z,101218.38
2024-04-10T17:37:58.748Z,101220.94
2024-04-10T17:40:26.007Z,101215.41
2024-04-10T17:42:53.321Z,101214.00
2024-04-10T17:45:20.591Z,101223.34
2024-04-10T17:47:47.899Z,101221.94
2024-04-10T17:50:15.230Z,101224.03
2024-04-10T17:52:42.481Z,101233.53
2024-04-10T17:55:09.872Z,101235.78
2024-04-10T17:57:37.119Z,101231.81
2024-04-10T18:00:07.006Z,101233.66
2024-04-10T18:02:41.692Z,101239.59
2024-04-10T18:05:09.297Z,101234.72
2024-04-10T18:07:36.558Z,101234.28
2024-04-10T18:10:04.101Z,101239.25
2024-04-10T18:12:33.166Z,101240.50
2024-04-10T18:15:00.517Z,101249.56
2024-04-10T18:17:27.970Z,101247.88
2024-04-10T18:19:55.389Z,101257.63
2024-04-10T18:22:22.679Z,101253.63
2024-04-10T18:24:50.086Z,101258.72
2024-04-10T18:27:17.259Z,101261.09
2024-04-10T18:29:45.524Z,101263.84
2024-04-10T18:32:12.937Z,101260.34
2024-04-10T18:34:40.292Z,101261.84
2024-04-10T18:37:07.506Z,101262.81
2024-04-10T18:39:34.990Z,101270.56
2024-04-10T18:42:02.302Z,101266.75
2024-04-10T18:44:32.156Z,101272.13
2024-04-10T18:47:01.362Z,101269.63
2024-04-10T18:49:28.910Z,101268.72
2024-04-10T18:51:56.453Z,101275.41
2024-04-10T18:54:23.802Z,101271.75
2024-04-10T18:56:51.393Z,101280.25
2024-04-10T18:59:18.666Z,101285.50
2024-04-10T19:01:45.948Z,101288.50
2024-04-10T19:04:13.491Z,101290.34
2024-04-10T19:06:50.501Z,101286.91
2024-04-10T19:09:17.831Z,101284.66
2024-04-10T19:11:45.093Z,101299.78
2024-04-10T19:14:17.499Z,101298.31
2024-04-10T19:16:47.770Z,101295.19
2024-04-10T19:19:15.155Z,101301.53
2024-04-10T19:21:42.712Z,101304.00
2024-04-10T19:24:10.866Z,101294.25
2024-04-10T19:26:38.577Z,101303.09
2024-04-10T19:29:05.869Z,101300.91
2024-04-10T19:31:33.281Z,101305.81
2024-04-10T19:34:04.214Z,101310.19
2024-04-10T19:36:31.950Z,101299.59
2024-04-10T19:39:07.085Z,101304.38
2024-04-10T19:41:34.504Z,101308.16
2024-04-10T19:44:02.657Z,101306.22
2024-04-10T19:46:30.538Z,101307.44
2024-04-10T19:48:57.983Z,101310.50
2024-04-10T19:51:25.549Z,101316.47
2024-04-10T19:53:52.851Z,101316.25
2024-04-10T19:56:20.132Z,101315.91
2024-04-10T19:58:47.497Z,101323.09
2024-04-10T20:01:14.811Z,101317.13
2024-04-10T20:03:42.940Z,101325.91
2024-04-10T20:06:11.224Z,101319.97
2024-04-10T20:08:42.535Z,101323.50
2024-04-10T20:11:11.153Z,101325.47
2024-04-10T20:13:38.953Z,101328.88
2024-04-10T20:16:10.295Z,101327.41
2024-04-10T20:18:39.742Z,101330.34
2024-04-10T20:21:08.196Z,101335.22
2024-04-10T20:23:36.346Z,101338.25
2024-04-10T20:26:04.931Z,101347.78
2024-04-10T20:28:33.350Z,101343.41
2024-04-10T20:31:04.695Z,101341.84
2024-04-10T20:33:32.474Z,101348.19
2024-04-10T20:36:00.304Z,101350.69
2024-04-10T20:38:27.693Z,101345.81
2024-04-10T20:40:59.512Z,101352.34
2024-04-10T20:43:26.813Z,101345.88
2024-04-10T20:45:54.570Z,101345.47
2024-04-10T20:48:26.777Z,101349.59
2024-04-10T20:50:55.006Z,101338.44
2024-04-10T20:53:24.093Z,101344.06
2024-04-10T20:56:01.294Z,101344.69
2024-04-10T20:58:28.920Z,101343.19
2024-04-10T21:01:14.978Z,101346.00
2024-04-10T21:03:46.571Z,101345.03
2024-04-10T21:06:15.645Z,101349.41
2024-04-10T21:09:05.394Z,101342.75
2024-04-10T21:11:56.869Z,101353.69
2024-04-10T21:14:43.258Z,101356.69
2024-04-10T21:17:29.408Z,101350.28
2024-04-10T21:20:15.356Z,101351.34
2024-04-10T21:23:01.572Z,101344.41
2024-04-10T21:25:48.838Z,101345.38
2024-04-10T21:28:35.430Z,101352.91
2024-04-10T21:31:22.375Z,101351.94
2024-04-10T21:34:08.352Z,101355.31
2024-04-10T21:36:54.264Z,101353.88
2024-04-10T21:39:39.690Z,101351.19
2024-04-10T21:42:25.620Z,101354.31
2024-04-10T21:45:11.557Z,101355.50
2024-04-10T21:47:57.567Z,101355.91
2024-04-10T21:50:45.277Z,101366.00
2024-04-10T21:53:31.433Z,101371.13
2024-04-10T21:56:17.384Z,101373.97
2024-04-10T21:59:03.471Z,101373.09
2024-04-10T22:02:01.012Z,101372.28
2024-04-10T22:04:52.524Z,101369.84
2024-04-10T22:07:38.652Z,101376.78
2024-04-10T22:10:05.988Z,101376.78
2024-04-10T22:12:33.483Z,101370.69
2024-04-10T22:15:02.724Z,101376.78
2024-04-10T22:17:48.799Z,101369.97
2024-04-10T22:20:34.851Z,101378.28
2024-04-10T22:23:20.868Z,101380.09
2024-04-10T22:25:54.893Z,101379.81
2024-04-10T22:28:27.095Z,101382.66
2024-04-10T22:30:55.074Z,101379.69
2024-04-10T22:33:22.544Z,101383.22
2024-04-10T22:35:56.918Z,101376.28
2024-04-10T22:38:24.283Z,101376.47
2024-04-10T22:40:51.522Z,101379.50
2024-04-10T22:43:18.680Z,101377.25
2024-04-10T22:45:45.991Z,101385.56
2024-04-10T22:48:13.554Z,101376.72
2024-04-10T22:50:40.812Z,101385.56
2024-04-10T22:53:08.199Z,101384.19
2024-04-10T22:55:35.414Z,101390.25
2024-04-10T22:58:03.702Z,101388.78
2024-04-10T23:00:31.232Z,101386.06
2024-04-10T23:02:58.515Z,101390.66
2024-04-10T23:05:42.195Z,101385.56
2024-04-10T23:08:29.122Z,101390.66
2024-04-10T23:10:59.529Z,101389.94
2024-04-10T23:13:26.778Z,101383.81
2024-04-10T23:15:54.060Z,101387.69
2024-04-10T23:18:32.166Z,101390.06
2024-04-10T23:21:08.422Z,101387.09
2024-04-10T23:23:36.067Z,101390.38
2024-04-10T23:26:03.324Z,101385.25
2024-04-10T23:28:30.724Z,101391.75
2024-04-10T23:30:57.961Z,101388.56
2024-04-10T23:33:25.378Z,101387.94
2024-04-10T23:35:52.788Z,101388.31
2024-04-10T23:38:20.207Z,101398.97
2024-04-10T23:40:47.720Z,101393.94
2024-04-10T23:43:14.859Z,101394.81
2024-04-10T23:45:43.719Z,101397.88
2024-04-10T23:48:13.071Z,101390.47
2024-04-10T23:50:40.591Z,101399.78
2024-04-10T23:53:07.856Z,101402.63
2024-04-10T23:55:35.012Z,101395.25
2024-04-10T23:58:02.165Z,101401.59
